Dries Fellaini

Recruteur - Anderlecht
24 Sept 2028
Dimanche
Processus

Personnalité

Adaptabilité (9) Ambition (1) Controverse (10) Loyauté (11) Pression (8) Professionnalisme (1) Sportivité (7) Tempérament (13)

Profil

Style d'entraînement Démocratique
Diplôme Continental Pro
Détermination 8
Gestion des joueurs 12
Motivation 6
Discipline 9
Satisfaction professionnelle
100%
Fatigue
0%
Rôle Recruteur
Salaire 64.2K p/s
Contrat 14.03.2029

Performance

Comportement Bon
Efficacité de l'entraînement
35%
Développement des joueurs
50%
Prévention des blessures
40%
Mise en place tactique
30%

Événements récents

A évalué un joueur 14j
A participé à une réunion de recrutement 14j
A participé à une réunion de recrutement 21j
A participé à une réunion de recrutement 28j
A participé à une réunion de recrutement 35j
A participé à une réunion de recrutement 42j
A participé à une réunion de recrutement 49j
A participé à une réunion de recrutement 56j

Suivi en cours

54
Joueur Club Statut Capacité Confiance Observé Dernière observation Dernier vote
Paolo Dorini Estudiantes de Merida Actif 84 / 97 40% 1 04.09.2028 -
Sebastian Rodriguez Houston Dynamo Actif 130 / 126 40% 1 04.09.2028 -
Antoine Colassin Charleroi Perdu 124 / 127 62% 1 07.06.2028 Approuver
Stanis Idumbo AC Ajaccio Actif 137 / 140 40% 1 31.12.2027 -
Bruno Gomes Internacional Actif 123 / 133 40% 2 15.12.2027 -
Tiago Santos LOSC Lille Actif 162 / 151 40% 2 10.12.2027 -
Sergi Cardona KAA Gent Actif 162 / 153 40% 1 10.12.2027 -
Samson Baidoo RC Lens Actif 155 / 153 40% 4 09.12.2027 -
Ismaël Doukouré RC Strasbourg Actif 152 / 144 40% 2 09.12.2027 -
Luciano Juba Bahia Actif 141 / 133 40% 3 05.12.2027 -
Soumaïla Coulibaly RC Strasbourg Actif 138 / 140 40% 1 05.12.2027 -
Danilo Botafogo Actif 142 / 139 40% 2 03.12.2027 -
Diego Coppola Paris FC Actif 149 / 149 40% 1 02.12.2027 -
Renan Lodi Atlético Mineiro Actif 145 / 136 40% 1 25.11.2027 -
Vitinho Botafogo Actif 134 / 135 40% 3 24.11.2027 -
Agustín Giay Palmeiras Actif 131 / 134 40% 3 24.11.2027 -
Jakub Moder Burnley Actif 144 / 142 40% 2 21.11.2027 -
Lucas Sanabria LA Galaxy Actif 144 / 139 40% 2 19.11.2027 -
Marcos Antonio Sport Recife Actif 134 / 139 40% 1 19.11.2027 -
Clément Akpa AJ Auxerre Actif 128 / 134 40% 3 15.11.2027 -
Ayumu Seko Le Havre AC Actif 134 / 137 40% 1 15.11.2027 -
Emil Breivik Molde Actif 128 / 133 40% 2 10.11.2027 -
Amadou Haïdara RC Lens Actif 149 / 147 40% 2 10.11.2027 -
Quentin Merlin Stade Rennais Actif 149 / 140 40% 1 09.11.2027 -
Ángelo Preciado Atlético Mineiro Actif 136 / 129 40% 1 05.11.2027 -
Abner Vinicius Olympique Lyonnais Actif 146 / 138 40% 1 05.11.2027 -
Andrew Omobamidele RC Strasbourg Actif 136 / 140 40% 1 02.11.2027 -
Victor Hernandez Santa Fe Actif 115 / 127 40% 1 02.11.2027 -
Mitchel Bakker Modena Actif 139 / 135 40% 1 31.10.2027 -
Beraldo Paris Saint-Germain Actif 165 / 159 40% 1 28.10.2027 -
Matheus Henrique Cruzeiro Actif 133 / 135 40% 1 27.10.2027 -
Fredrik Bjørkan Bodo/Glimt Actif 146 / 125 40% 2 24.10.2027 -
Santiago Salcedo Cruzeiro Actif 146 / 152 40% 1 24.10.2027 -
Lucas Høgsberg RC Strasbourg Actif 144 / 146 40% 1 22.10.2027 -
Otávio Paris FC Actif 144 / 138 40% 1 19.10.2027 -
Joris Chotard Stade Brestois Actif 140 / 138 40% 1 09.10.2027 -
Matheus Bidu Corinthians Actif 123 / 126 40% 1 09.10.2027 -
Riku Handa Gamba Osaka Actif 128 / 137 40% 2 07.10.2027 -
Jordan Teze Monaco Actif 146 / 143 40% 1 05.10.2027 -
Matheuzinho Corinthians Actif 127 / 129 40% 1 02.10.2027 -
Youssouf Ndayishimiye OGC Nice Actif 137 / 147 40% 1 30.09.2027 -
Vitão Flamengo Actif 139 / 141 40% 1 28.09.2027 -
Riku Yamane Yokohama F. Marinos Actif 130 / 131 40% 1 26.09.2027 -
Alexandro Bernabei Internacional Actif 125 / 135 40% 2 23.09.2027 -
Taiyo Koga Kashiwa Reysol Actif 137 / 141 40% 1 22.09.2027 -
Ismaël Bennacer Boca Juniors Actif 140 / 146 40% 1 14.09.2027 -
Odin Bjørtuft Bodo/Glimt Actif 118 / 128 40% 1 14.09.2027 -
Christian Kashima Antlers Actif 137 / 135 40% 1 13.09.2027 -
César Inga Universitario Actif 135 / 132 40% 1 08.09.2027 -
Niklas Dorsch Toronto FC Actif 115 / 132 40% 1 07.09.2027 -
Ilias Sebaoui Sint-Truiden Actif 134 / 127 58% 1 07.06.2027 -
Mile Svilar AS Roma Actif 159 / 164 40% 1 02.06.2027 -
Ivor Pandur Hull City Actif 134 / 123 40% 1 02.06.2027 -
Cisse Sandra Westerlo Actif 115 / 116 55% 1 01.01.2027 -